Time;durP1;ratioP1;P1;durP2;ratioP2;P2;SDS_P1;SDS_P2;PMS_P1;PMS_P2;Temp;Humidity;BMP_temperature;BMP_pressure;BME280_temperature;BME280_humidity;BME280_pressure;Samples;Min_cycle;Max_cycle;Signal;HPM_P1;HPM_P2
2022/03/03 00:04:15;;;;;;;26.23;13.63;;;2.10;62.40;;;;;;20748355;28;20233;-70
2022/03/03 00:14:17;;;;;;;27.80;14.43;;;2.00;62.50;;;;;;20748149;28;20257;-67
2022/03/03 00:24:18;;;;;;;26.77;14.77;;;1.90;62.70;;;;;;20745192;28;20229;-67
2022/03/03 00:34:20;;;;;;;22.50;13.67;;;2.00;63.00;;;;;;20747288;28;20700;-67
2022/03/03 00:44:22;;;;;;;26.63;14.33;;;2.00;63.60;;;;;;20747385;28;20210;-67
2022/03/03 00:54:23;;;;;;;26.17;13.77;;;1.90;63.70;;;;;;20746327;28;20740;-68
2022/03/03 01:04:25;;;;;;;25.53;13.50;;;1.80;63.70;;;;;;20751666;28;20557;-67
2022/03/03 01:14:27;;;;;;;24.67;14.27;;;1.80;64.50;;;;;;20761158;28;20235;-68
2022/03/03 01:24:28;;;;;;;23.60;13.97;;;1.70;64.40;;;;;;20756537;28;20209;-66
2022/03/03 01:34:30;;;;;;;26.13;15.03;;;1.80;64.70;;;;;;20759033;28;20642;-66
2022/03/03 01:44:32;;;;;;;27.43;14.17;;;1.70;64.40;;;;;;20758972;28;20205;-71
2022/03/03 01:54:34;;;;;;;27.03;14.57;;;1.40;65.70;;;;;;20757885;28;20243;-69
2022/03/03 02:04:35;;;;;;;26.77;14.13;;;1.40;66.10;;;;;;20756393;28;20263;-68
2022/03/03 02:14:45;;;;;;;27.53;14.27;;;1.50;66.00;;;;;;20754929;28;20240;-72
2022/03/03 02:24:47;;;;;;;22.87;13.73;;;1.30;65.60;;;;;;20754723;28;20219;-69
2022/03/03 02:34:49;;;;;;;24.00;13.60;;;1.10;66.60;;;;;;20754491;28;20239;-69
2022/03/03 02:44:51;;;;;;;30.57;13.53;;;1.10;66.50;;;;;;20753837;28;20269;-69
2022/03/03 02:54:52;;;;;;;23.43;13.60;;;1.20;66.30;;;;;;20753452;28;20263;-73
2022/03/03 03:04:54;;;;;;;24.30;13.40;;;1.00;66.60;;;;;;20752318;28;20239;-68
2022/03/03 03:14:56;;;;;;;25.57;13.70;;;1.10;67.30;;;;;;20751699;28;20293;-67
2022/03/03 03:24:58;;;;;;;23.10;13.40;;;1.10;67.00;;;;;;20805868;28;20220;-68
2022/03/03 03:35:01;;;;;;;23.63;13.47;;;0.60;67.20;;;;;;20831383;28;20242;-68
2022/03/03 03:45:04;;;;;;;25.23;13.13;;;0.60;68.20;;;;;;20831209;28;20226;-69
2022/03/03 03:55:09;;;;;;;22.47;13.17;;;0.60;68.80;;;;;;20830936;28;20269;-70
2022/03/03 04:05:11;;;;;;;22.93;13.37;;;0.60;68.00;;;;;;20829793;28;20371;-68
2022/03/03 04:15:13;;;;;;;24.27;12.93;;;0.40;68.50;;;;;;20829534;28;20247;-65
2022/03/03 04:25:15;;;;;;;24.03;12.57;;;0.40;69.10;;;;;;20829542;28;20209;-70
2022/03/03 04:35:17;;;;;;;22.47;12.53;;;0.40;68.80;;;;;;20830826;28;20292;-70
2022/03/03 04:45:18;;;;;;;31.10;13.97;;;0.50;68.30;;;;;;20845164;28;20699;-66
2022/03/03 04:55:20;;;;;;;25.90;13.53;;;0.40;68.60;;;;;;20844466;28;20235;-68
2022/03/03 05:05:22;;;;;;;25.13;13.00;;;0.40;68.80;;;;;;20843379;28;20237;-68
2022/03/03 05:15:24;;;;;;;29.87;14.53;;;0.30;69.40;;;;;;20843017;28;20235;-66
2022/03/03 05:25:29;;;;;;;24.40;13.50;;;0.30;70.10;;;;;;20780518;28;20659;-68
2022/03/03 05:35:31;;;;;;;47.93;15.20;;;0.40;70.50;;;;;;20758663;28;20247;-69
2022/03/03 05:45:33;;;;;;;36.93;13.70;;;0.50;70.20;;;;;;20756607;28;20251;-67
2022/03/03 05:55:47;;;;;;;23.13;12.83;;;0.40;70.60;;;;;;20755616;28;20235;-65
2022/03/03 06:05:53;;;;;;;27.37;12.77;;;0.40;70.10;;;;;;20761248;28;20230;-65
2022/03/03 06:15:55;;;;;;;24.67;13.10;;;0.50;70.10;;;;;;20837544;28;20275;-70
2022/03/03 06:26:00;;;;;;;27.50;14.30;;;0.40;69.80;;;;;;20837345;28;20202;-66
2022/03/03 06:36:03;;;;;;;35.30;15.03;;;0.20;70.90;;;;;;20835626;28;20290;-68
2022/03/03 06:46:06;;;;;;;41.27;15.33;;;0.50;71.00;;;;;;20834681;28;20205;-65
2022/03/03 06:56:09;;;;;;;33.80;15.43;;;0.70;70.90;;;;;;20833732;28;20756;-66
2022/03/03 07:06:13;;;;;;;39.33;18.93;;;0.80;70.40;;;;;;20832505;28;20239;-69
2022/03/03 07:16:41;;;;;;;30.87;15.13;;;0.90;71.00;;;;;;20832167;28;20263;-74
2022/03/03 07:26:46;;;;;;;34.53;15.67;;;1.50;71.40;;;;;;20765495;28;20209;-66
2022/03/03 07:36:49;;;;;;;35.37;16.90;;;1.40;71.00;;;;;;20749199;28;20245;-66
2022/03/03 07:46:51;;;;;;;34.17;17.87;;;1.80;71.00;;;;;;20746351;28;20263;-65
2022/03/03 07:56:56;;;;;;;31.77;16.83;;;2.10;70.30;;;;;;20748091;28;20244;-65
2022/03/03 08:07:06;;;;;;;32.63;16.60;;;2.20;69.90;;;;;;20748668;28;20254;-67
2022/03/03 08:17:12;;;;;;;29.47;15.37;;;2.20;69.70;;;;;;20746692;28;20295;-69
2022/03/03 08:27:14;;;;;;;36.33;15.90;;;2.60;69.70;;;;;;20746115;28;20244;-70
2022/03/03 08:37:28;;;;;;;29.90;16.47;;;3.00;68.90;;;;;;20745589;28;20275;-66
2022/03/03 08:47:31;;;;;;;33.03;16.33;;;3.40;68.60;;;;;;20745908;28;20294;-70
2022/03/03 08:57:33;;;;;;;37.17;15.90;;;3.90;67.50;;;;;;20745512;28;20237;-67
2022/03/03 09:07:34;;;;;;;24.47;14.80;;;4.30;66.50;;;;;;20744866;28;20246;-68
2022/03/03 09:17:37;;;;;;;31.67;15.30;;;4.40;65.80;;;;;;20744221;28;20252;-69
2022/03/03 09:27:39;;;;;;;31.57;14.80;;;4.80;64.30;;;;;;20750349;28;20661;-67
2022/03/03 09:37:41;;;;;;;22.93;14.67;;;4.80;64.10;;;;;;20757924;28;20233;-62
2022/03/03 09:47:43;;;;;;;27.67;15.17;;;5.30;63.10;;;;;;20758474;28;20219;-66
2022/03/03 09:57:45;;;;;;;28.30;14.53;;;5.50;63.40;;;;;;20756869;28;20283;-63
2022/03/03 10:08:04;;;;;;;28.00;14.93;;;5.80;61.50;;;;;;20755683;28;20268;-63
2022/03/03 10:18:11;;;;;;;24.77;14.37;;;6.20;60.60;;;;;;20767325;28;20235;-63
2022/03/03 10:28:17;;;;;;;24.67;14.43;;;6.60;59.80;;;;;;20833036;28;20252;-64
2022/03/03 10:38:19;;;;;;;20.10;12.53;;;6.60;59.60;;;;;;20835353;28;20239;-63
2022/03/03 10:48:22;;;;;;;20.73;12.77;;;6.90;59.00;;;;;;20849880;28;20248;-63
2022/03/03 10:58:46;;;;;;;24.07;12.60;;;7.20;58.10;;;;;;20815797;28;20243;-65
2022/03/03 11:08:49;;;;;;;24.57;12.30;;;7.50;56.00;;;;;;20786203;28;20244;-72
2022/03/03 11:18:52;;;;;;;23.13;12.93;;;7.80;54.50;;;;;;20830450;28;20236;-72
2022/03/03 11:29:12;;;;;;;21.57;13.00;;;8.00;53.60;;;;;;20831177;28;20211;-64
2022/03/03 11:39:45;;;;;;;21.00;13.10;;;8.00;54.00;;;;;;20829104;28;20296;-68
2022/03/03 11:50:12;;;;;;;21.07;12.40;;;8.40;52.40;;;;;;20818070;28;20210;-64
2022/03/03 12:00:18;;;;;;;19.50;12.23;;;8.60;50.70;;;;;;20825879;28;20268;-71
2022/03/03 12:10:20;;;;;;;20.60;11.83;;;8.70;51.20;;;;;;20827285;28;20782;-75
2022/03/03 12:20:27;;;;;;;16.80;11.43;;;9.00;50.00;;;;;;20788281;28;20288;-72
2022/03/03 12:30:52;;;;;;;23.30;10.77;;;9.30;48.30;;;;;;20820969;28;20293;-72
2022/03/03 12:40:54;;;;;;;14.13;9.10;;;9.60;46.60;;;;;;20745174;28;20308;-66
2022/03/03 12:51:07;;;;;;;15.43;8.80;;;10.80;48.90;;;;;;20742812;28;20563;-61
2022/03/03 13:01:09;;;;;;;14.53;9.33;;;;;;;;;;20754395;28;20302;-62
2022/03/03 13:11:19;;;;;;;11.53;7.97;;;11.60;45.10;;;;;;20798153;28;20299;-64
2022/03/03 13:21:25;;;;;;;21.10;14.33;;;11.40;41.20;;;;;;20834434;28;20375;-63
2022/03/03 13:31:30;;;;;;;11.60;8.53;;;11.40;41.70;;;;;;20835951;28;20204;-63
2022/03/03 13:41:35;;;;;;;11.40;8.10;;;11.40;39.50;;;;;;20839733;28;20239;-64
2022/03/03 13:51:37;;;;;;;33.27;19.03;;;11.40;38.30;;;;;;20838796;28;20612;-63
2022/03/03 14:01:39;;;;;;;14.97;9.80;;;11.50;36.40;;;;;;20836843;28;20632;-62
2022/03/03 14:11:41;;;;;;;12.97;9.23;;;11.50;36.90;;;;;;20832909;28;20208;-65
2022/03/03 14:21:43;;;;;;;13.00;8.53;;;11.70;36.30;;;;;;20836679;28;20231;-63
2022/03/03 14:31:45;;;;;;;12.57;7.93;;;12.40;34.90;;;;;;20835419;28;20224;-64
2022/03/03 14:41:48;;;;;;;10.37;7.47;;;13.10;34.60;;;;;;20835187;28;20520;-64
2022/03/03 14:51:51;;;;;;;10.10;7.53;;;14.20;34.20;;;;;;20834589;28;20255;-64
2022/03/03 15:01:53;;;;;;;13.20;9.60;;;16.80;33.00;;;;;;20832200;28;20244;-64
2022/03/03 15:11:55;;;;;;;11.07;7.97;;;17.60;31.90;;;;;;20832507;28;20282;-65
2022/03/03 15:21:59;;;;;;;11.10;8.80;;;20.60;30.00;;;;;;20755603;28;20288;-63
2022/03/03 15:32:02;;;;;;;12.00;8.20;;;22.20;28.10;;;;;;20749994;28;20224;-63
2022/03/03 15:42:05;;;;;;;12.57;7.93;;;18.60;28.50;;;;;;20749482;28;20241;-63
2022/03/03 15:52:07;;;;;;;16.33;8.80;;;19.90;28.00;;;;;;20748161;28;20214;-63
2022/03/03 16:02:09;;;;;;;8.67;6.67;;;15.20;28.70;;;;;;20762938;28;20242;-63
2022/03/03 16:12:11;;;;;;;20.47;7.83;;;14.40;29.60;;;;;;20747763;28;20205;-63
2022/03/03 16:22:12;;;;;;;14.63;8.60;;;13.20;30.00;;;;;;20747033;28;20635;-64
2022/03/03 16:32:17;;;;;;;18.80;8.43;;;12.10;32.00;;;;;;20752185;28;20197;-65
2022/03/03 16:42:20;;;;;;;13.00;8.77;;;11.90;33.00;;;;;;20842998;28;20224;-65
2022/03/03 16:52:22;;;;;;;16.20;9.00;;;12.30;34.30;;;;;;20843941;28;20200;-66
2022/03/03 17:02:25;;;;;;;17.83;10.07;;;11.20;34.30;;;;;;20843115;28;20291;-63
2022/03/03 17:12:28;;;;;;;19.60;10.27;;;10.90;35.30;;;;;;20842665;28;20212;-64
2022/03/03 17:22:29;;;;;;;20.10;11.43;;;10.30;36.70;;;;;;20785018;28;20293;-64
2022/03/03 17:32:31;;;;;;;26.80;16.03;;;9.50;39.60;;;;;;20839871;28;20205;-67
2022/03/03 17:42:33;;;;;;;24.43;14.70;;;9.00;40.60;;;;;;20836776;28;20293;-69
2022/03/03 17:52:35;;;;;;;30.60;16.07;;;8.60;41.90;;;;;;20838184;28;20200;-67
2022/03/03 18:02:38;;;;;;;43.47;14.30;;;8.50;42.70;;;;;;20838301;28;20239;-66
2022/03/03 18:12:40;;;;;;;24.80;14.90;;;8.30;43.70;;;;;;20837832;28;20234;-64
2022/03/03 18:22:42;;;;;;;21.27;13.40;;;7.90;44.80;;;;;;20852660;28;20241;-67
2022/03/03 18:32:44;;;;;;;28.93;14.63;;;7.80;45.20;;;;;;20824132;28;20218;-65
2022/03/03 18:42:45;;;;;;;24.40;13.80;;;7.70;46.00;;;;;;20751382;28;20238;-66
2022/03/03 18:52:47;;;;;;;49.67;26.67;;;7.40;46.00;;;;;;20768114;28;20654;-64
2022/03/03 19:02:49;;;;;;;40.23;20.10;;;7.20;46.60;;;;;;20786296;28;20627;-64
2022/03/03 19:12:51;;;;;;;30.17;15.00;;;7.00;47.20;;;;;;20750096;28;20301;-65
2022/03/03 19:22:52;;;;;;;20.70;11.30;;;7.00;47.90;;;;;;20764760;28;20237;-66
2022/03/03 19:43:19;;;;;;;20.40;12.37;;;7.20;47.40;;;;;;20810796;28;20257;-69
2022/03/03 19:53:21;;;;;;;20.53;12.63;;;7.30;47.10;;;;;;20827953;28;20214;-69
2022/03/03 20:03:23;;;;;;;21.83;12.87;;;7.10;47.20;;;;;;20827724;28;20288;-67
2022/03/03 20:13:27;;;;;;;50.30;22.73;;;7.00;47.50;;;;;;20826851;28;20269;-65
2022/03/03 20:23:30;;;;;;;32.13;15.33;;;6.80;47.80;;;;;;20827267;28;20233;-65
2022/03/03 20:33:33;;;;;;;24.97;15.17;;;6.70;48.30;;;;;;20819558;28;20614;-67
2022/03/03 20:43:36;;;;;;;29.13;15.63;;;6.30;49.30;;;;;;20777532;28;20282;-71
2022/03/03 20:53:39;;;;;;;31.87;17.90;;;6.30;49.90;;;;;;20765717;28;20211;-65
2022/03/03 21:03:41;;;;;;;26.63;15.40;;;6.00;49.80;;;;;;20840445;28;20648;-68
2022/03/03 21:13:43;;;;;;;32.50;17.90;;;5.80;51.50;;;;;;20824330;28;20700;-68
2022/03/03 21:23:45;;;;;;;30.40;16.00;;;5.80;52.20;;;;;;20833134;28;20699;-64
2022/03/03 21:33:47;;;;;;;29.13;15.07;;;5.50;52.10;;;;;;20839285;28;20251;-65
2022/03/03 21:43:48;;;;;;;28.83;15.97;;;5.30;53.20;;;;;;20837025;28;20243;-65
2022/03/03 21:53:50;;;;;;;32.27;17.70;;;5.10;54.10;;;;;;20838119;28;20568;-64
2022/03/03 22:03:52;;;;;;;33.73;18.90;;;5.00;54.50;;;;;;20836703;28;20292;-64
2022/03/03 22:13:54;;;;;;;30.73;15.50;;;4.80;55.60;;;;;;20836239;28;20205;-64
2022/03/03 22:23:56;;;;;;;31.67;16.37;;;4.70;55.80;;;;;;20835755;28;20688;-63
2022/03/03 22:33:58;;;;;;;31.97;16.77;;;4.60;56.80;;;;;;20834027;28;20216;-66
2022/03/03 22:44:00;;;;;;;34.97;17.00;;;4.50;57.00;;;;;;20834082;28;20228;-64
2022/03/03 22:54:02;;;;;;;35.80;16.23;;;4.50;57.70;;;;;;20833600;28;20620;-63
2022/03/03 23:14:24;;;;;;;29.77;17.13;;;4.10;59.00;;;;;;20813911;28;20209;-63
2022/03/03 23:24:27;;;;;;;32.10;18.77;;;4.10;59.60;;;;;;20744237;28;20237;-64
2022/03/03 23:34:29;;;;;;;31.80;17.73;;;3.90;59.80;;;;;;20749071;28;20240;-63
2022/03/03 23:44:30;;;;;;;31.53;17.60;;;3.80;60.60;;;;;;20749236;28;20233;-64
2022/03/03 23:54:32;;;;;;;30.10;17.33;;;3.70;61.20;;;;;;20749735;28;20224;-63
